Al-Wajh Domestic Airport

Airport
ICAO code: 
OEWJ
IATA Code: 
EJH
Summary
ICAO Region: 
MID
Territory: 
Location: 
Al-Wajh, Tabuk Region
Serving: 
Al Wajh
Elevation: 
66 ft
Coordinates: 
Aerial View: 
26° 11' 53.999" N, 36° 28' 32.002" E
Metar
Observation
OEWJ 082100Z 01006KT CAVOK 18/07 Q1020 NOSIG
Station
Wejh
Date/Time
2021-12-08 21:00:00
Wind direction
10°
Wind speed
06 kts
Lowest cloud amount
clouds and visibility OK
Temperature
18°C
Dew point
7°C
Humidity
48%
QNH
1020 hPa
Weather condition
n/a

Al Wajh Domestic Airport is located 20 km northeast of Al Wajh (Wejh), Saudi Arabia.

Climatology

Hot Desert Climate (Köppen climate classification BWh) - Hot desert climates are typically found in the subtropics where there is unbroken sunshine for the whole year due to the stable descending air and high pressure, little or no precipitation. Maximum temperatures of 40°C to 45°C are not uncommon, particularly during the warmer months of the year. During colder periods of the year, night-time temperatures can drop to freezing or below due to the exceptional radiation loss under the clear skies. However, very rarely do temperatures drop far below freezing.

Runways

Designator Length Width Surface Rops
15/33 3050 45 ASP Yes/Yes
Airport map: 
Aerial View: 

SKYbrary Partners:

Safety knowledge contributed by: